createdAt,value
2022-08-14T00:01:24.192Z,9.02
2022-08-14T00:03:53.333Z,8.57
2022-08-14T00:06:28.790Z,7.40
2022-08-14T00:08:59.258Z,6.18
2022-08-14T00:11:31.225Z,6.15
2022-08-14T00:13:59.811Z,6.00
2022-08-14T00:16:40.958Z,5.95
2022-08-14T00:19:19.397Z,6.80
2022-08-14T00:21:49.971Z,6.05
2022-08-14T00:24:28.349Z,6.82
2022-08-14T00:27:02.105Z,6.93
2022-08-14T00:29:40.122Z,6.07
2022-08-14T00:32:53.088Z,7.25
2022-08-14T00:34:57.182Z,6.95
2022-08-14T00:37:24.277Z,6.00
2022-08-14T00:39:51.285Z,5.70
2022-08-14T00:42:54.907Z,7.43
2022-08-14T00:45:13.964Z,8.77
2022-08-14T00:47:44.896Z,5.78
2022-08-14T00:50:17.602Z,6.32
2022-08-14T00:52:52.389Z,9.77
2022-08-14T00:55:20.826Z,6.05
2022-08-14T00:58:11.113Z,6.07
2022-08-14T01:00:47.370Z,6.55
2022-08-14T01:03:20.463Z,5.93
2022-08-14T01:05:52.436Z,7.60
2022-08-14T01:08:57.894Z,5.93
2022-08-14T01:11:19.546Z,9.32
2022-08-14T01:13:55.985Z,6.53
2022-08-14T01:16:31.142Z,6.80
2022-08-14T01:19:16.746Z,6.03
2022-08-14T01:21:47.122Z,6.72
2022-08-14T01:24:23.019Z,6.00
2022-08-14T01:27:00.485Z,6.25
2022-08-14T01:30:00.696Z,6.80
2022-08-14T01:32:22.602Z,6.85
2022-08-14T01:37:54.581Z,6.30
2022-08-14T01:40:36.210Z,8.85
2022-08-14T01:43:21.887Z,6.90
2022-08-14T01:45:57.624Z,7.45
2022-08-14T01:48:37.212Z,7.40
2022-08-14T01:51:19.179Z,6.53
2022-08-14T01:53:54.803Z,6.07
2022-08-14T01:56:39.764Z,6.53
2022-08-14T02:01:37.977Z,6.80
2022-08-14T02:04:40.564Z,6.07
2022-08-14T02:06:59.249Z,6.57
2022-08-14T02:09:26.052Z,6.50
2022-08-14T02:11:54.577Z,6.53
2022-08-14T02:14:31.024Z,9.90
2022-08-14T02:16:59.111Z,6.63
2022-08-14T02:19:31.758Z,6.22
2022-08-14T02:22:02.785Z,7.40
2022-08-14T02:24:40.073Z,6.25
2022-08-14T02:28:25.045Z,5.85
2022-08-14T02:29:59.796Z,9.50
2022-08-14T02:32:30.387Z,6.40
2022-08-14T02:35:06.834Z,6.32
2022-08-14T02:37:46.444Z,8.43
2022-08-14T02:40:15.656Z,7.05
2022-08-14T02:42:54.804Z,7.47
2022-08-14T02:45:38.266Z,7.03
2022-08-14T02:49:04.191Z,5.80
2022-08-14T02:51:00.853Z,13.18
2022-08-14T02:53:29.423Z,8.70
2022-08-14T02:56:03.138Z,7.43
2022-08-14T02:58:32.324Z,6.82
2022-08-14T03:01:01.309Z,5.63
2022-08-14T03:03:27.893Z,5.65
2022-08-14T03:05:58.776Z,6.43
2022-08-14T03:08:31.703Z,7.35
2022-08-14T03:11:07.740Z,5.95
2022-08-14T03:13:41.156Z,7.13
2022-08-14T03:16:20.045Z,6.22
2022-08-14T03:18:55.486Z,5.63
2022-08-14T03:21:23.795Z,8.88
2022-08-14T03:24:16.684Z,9.63
2022-08-14T03:26:49.864Z,7.10
2022-08-14T03:29:26.469Z,9.65
2022-08-14T03:31:53.491Z,6.95
2022-08-14T03:34:24.550Z,6.65
2022-08-14T03:37:51.145Z,7.38
2022-08-14T03:39:58.834Z,8.20
2022-08-14T03:42:35.912Z,8.65
2022-08-14T03:45:26.006Z,7.10
2022-08-14T03:47:55.931Z,6.95
2022-08-14T03:50:30.708Z,9.97
2022-08-14T03:53:02.772Z,6.53
2022-08-14T03:55:30.367Z,8.05
2022-08-14T03:57:57.497Z,7.18
2022-08-14T04:00:43.933Z,8.60
2022-08-14T04:03:10.771Z,7.18
2022-08-14T04:05:42.766Z,7.43
2022-08-14T04:08:30.088Z,8.75
2022-08-14T04:10:59.489Z,7.82
2022-08-14T04:13:31.695Z,7.95
2022-08-14T04:16:04.794Z,6.53
2022-08-14T04:18:33.780Z,7.88
2022-08-14T04:21:01.141Z,7.10
2022-08-14T04:23:32.778Z,7.07
2022-08-14T04:26:08.059Z,8.52
2022-08-14T04:29:07.042Z,6.85
2022-08-14T04:33:00.715Z,6.68
2022-08-14T04:34:17.278Z,7.05
2022-08-14T04:37:09.215Z,7.28
2022-08-14T04:39:57.231Z,7.47
2022-08-14T04:42:47.681Z,6.78
2022-08-14T04:45:19.295Z,6.80
2022-08-14T04:48:04.339Z,8.18
2022-08-14T04:50:37.985Z,7.15
2022-08-14T04:53:15.951Z,7.65
2022-08-14T04:55:49.964Z,6.85
2022-08-14T04:58:21.675Z,9.38
2022-08-14T05:00:59.307Z,7.43
2022-08-14T05:03:32.205Z,8.20
2022-08-14T05:06:03.129Z,8.00
2022-08-14T05:08:57.108Z,7.00
2022-08-14T05:11:19.442Z,6.93
2022-08-14T05:14:33.850Z,7.85
2022-08-14T05:16:33.251Z,7.72
2022-08-14T05:19:18.508Z,8.65
2022-08-14T05:21:59.260Z,7.47
2022-08-14T05:24:28.791Z,8.20
2022-08-14T05:26:56.065Z,7.18
2022-08-14T05:29:23.213Z,10.25
2022-08-14T05:31:50.586Z,10.18
2022-08-14T05:34:28.880Z,9.07
2022-08-14T05:37:01.899Z,8.63
2022-08-14T05:39:29.468Z,8.50
2022-08-14T05:41:56.734Z,8.30
2022-08-14T05:44:29.180Z,9.57
2022-08-14T05:46:57.188Z,9.63
2022-08-14T05:49:26.026Z,8.25
2022-08-14T05:52:01.952Z,9.30
2022-08-14T05:54:35.168Z,11.55
2022-08-14T05:57:02.898Z,10.68
2022-08-14T05:59:36.459Z,8.45
2022-08-14T06:02:05.807Z,9.75
2022-08-14T06:04:32.810Z,9.07
2022-08-14T06:06:59.464Z,7.15
2022-08-14T06:09:25.999Z,7.10
2022-08-14T06:11:53.137Z,7.22
2022-08-14T06:14:24.058Z,6.78
2022-08-14T06:16:52.967Z,7.13
2022-08-14T06:19:20.089Z,6.32
2022-08-14T06:21:46.621Z,7.45
2022-08-14T06:24:18.677Z,6.60
2022-08-14T06:26:54.205Z,6.57
2022-08-14T06:29:32.101Z,5.57
2022-08-14T06:32:38.692Z,8.00
2022-08-14T06:35:09.624Z,6.97
2022-08-14T06:37:41.271Z,7.13
2022-08-14T06:40:16.795Z,7.85
2022-08-14T06:43:03.396Z,5.80
2022-08-14T06:45:31.824Z,5.88
2022-08-14T06:48:00.849Z,7.63
2022-08-14T06:50:30.407Z,7.13
2022-08-14T06:52:58.621Z,6.03
2022-08-14T06:55:28.254Z,6.93
2022-08-14T06:57:57.914Z,6.40
2022-08-14T07:00:30.642Z,5.97
2022-08-14T07:03:17.618Z,6.70
2022-08-14T07:05:57.897Z,5.57
2022-08-14T07:08:28.686Z,6.22
2022-08-14T07:10:59.619Z,5.65
2022-08-14T07:13:27.608Z,5.57
2022-08-14T07:15:58.351Z,5.45
2022-08-14T07:18:30.941Z,7.22
2022-08-14T07:21:00.336Z,4.93
2022-08-14T07:23:27.362Z,5.30
2022-08-14T07:25:58.516Z,6.80
2022-08-14T07:28:29.148Z,4.82
2022-08-14T07:31:04.388Z,5.32
2022-08-14T07:33:36.445Z,4.63
2022-08-14T07:36:25.441Z,5.63
2022-08-14T07:38:53.556Z,7.05
2022-08-14T07:41:20.074Z,4.80
2022-08-14T07:43:47.469Z,5.70
2022-08-14T07:46:29.248Z,5.10
2022-08-14T07:48:58.397Z,5.47
2022-08-14T07:51:26.116Z,4.78
2022-08-14T07:54:02.361Z,4.50
2022-08-14T07:56:44.409Z,4.53
2022-08-14T07:59:16.883Z,5.07
2022-08-14T08:01:51.302Z,4.85
2022-08-14T08:04:24.535Z,6.43
2022-08-14T08:06:52.853Z,6.13
2022-08-14T08:09:24.258Z,5.30
2022-08-14T08:11:54.475Z,5.97
2022-08-14T08:14:24.943Z,5.88
2022-08-14T08:16:54.081Z,5.18
2022-08-14T08:19:20.597Z,5.57
2022-08-14T08:21:48.101Z,4.80
2022-08-14T08:24:20.145Z,4.20
2022-08-14T08:26:50.740Z,5.40
2022-08-14T08:29:28.580Z,5.45
2022-08-14T08:31:56.754Z,4.63
2022-08-14T08:34:29.239Z,4.47
2022-08-14T08:36:58.512Z,4.15
2022-08-14T08:39:25.096Z,4.78
2022-08-14T08:41:57.391Z,4.65
2022-08-14T08:44:32.531Z,4.32
2022-08-14T08:47:05.781Z,4.75
2022-08-14T08:49:58.943Z,4.72
2022-08-14T08:52:31.347Z,4.63
2022-08-14T08:55:00.852Z,5.47
2022-08-14T08:57:35.346Z,4.72
2022-08-14T09:00:02.423Z,4.05
2022-08-14T09:02:36.390Z,5.57
2022-08-14T09:05:04.010Z,4.88
2022-08-14T09:07:31.423Z,4.45
2022-08-14T09:09:59.897Z,3.72
2022-08-14T09:12:32.656Z,5.00
2022-08-14T09:15:12.617Z,5.03
2022-08-14T09:17:42.287Z,4.68
2022-08-14T09:20:11.719Z,4.00
2022-08-14T09:22:47.703Z,4.32
2022-08-14T09:25:19.483Z,4.82
2022-08-14T09:27:46.861Z,4.68
2022-08-14T09:30:31.504Z,3.85
2022-08-14T09:33:08.914Z,4.43
2022-08-14T09:36:02.943Z,4.80
2022-08-14T09:38:54.409Z,4.45
2022-08-14T09:42:20.903Z,5.10
2022-08-14T09:44:39.229Z,8.15
2022-08-14T09:47:10.637Z,3.97
2022-08-14T09:49:42.785Z,4.10
2022-08-14T09:52:23.730Z,3.75
2022-08-14T09:54:57.269Z,4.53
2022-08-14T09:57:27.530Z,3.40
2022-08-14T09:59:55.305Z,4.57
2022-08-14T10:02:34.480Z,4.65
2022-08-14T10:05:10.413Z,3.65
2022-08-14T10:07:53.673Z,2.85
2022-08-14T10:10:43.849Z,5.78
2022-08-14T10:13:26.112Z,4.25
2022-08-14T10:16:00.039Z,3.50
2022-08-14T10:18:27.795Z,4.10
2022-08-14T10:20:58.048Z,3.63
2022-08-14T10:23:30.167Z,4.57
2022-08-14T10:26:06.780Z,3.47
2022-08-14T10:29:18.183Z,3.45
2022-08-14T10:31:40.250Z,3.70
2022-08-14T10:34:14.205Z,4.00
2022-08-14T10:36:50.056Z,2.45
2022-08-14T10:39:19.708Z,2.90
2022-08-14T10:41:49.376Z,3.58
2022-08-14T10:44:24.567Z,2.55
2022-08-14T10:47:41.210Z,2.78
2022-08-14T10:49:47.544Z,3.75
2022-08-14T10:52:27.371Z,3.15
2022-08-14T10:55:08.145Z,2.78
2022-08-14T10:57:46.828Z,3.30
2022-08-14T11:00:20.554Z,2.50
2022-08-14T11:03:01.815Z,2.35
2022-08-14T11:05:47.989Z,3.38
2022-08-14T11:08:16.563Z,4.78
2022-08-14T11:10:44.989Z,3.13
2022-08-14T11:13:25.860Z,3.40
2022-08-14T11:15:57.450Z,3.58
2022-08-14T11:18:36.272Z,2.45
2022-08-14T11:21:06.968Z,2.22
2022-08-14T11:23:41.347Z,3.28
2022-08-14T11:26:11.529Z,2.35
2022-08-14T11:28:48.297Z,2.88
2022-08-14T11:31:23.532Z,2.28
2022-08-14T11:33:57.660Z,2.47
2022-08-14T11:36:56.868Z,3.20
2022-08-14T11:39:34.663Z,1.75
2022-08-14T11:42:57.283Z,2.83
2022-08-14T11:45:04.536Z,3.13
2022-08-14T11:50:36.075Z,2.65
2022-08-14T11:53:06.826Z,2.35
2022-08-14T11:55:39.383Z,2.33
2022-08-14T11:58:09.534Z,2.38
2022-08-14T12:00:48.144Z,2.28
2022-08-14T12:03:16.982Z,3.60
2022-08-14T12:05:44.980Z,2.53
2022-08-14T12:08:13.385Z,2.22
2022-08-14T12:10:43.301Z,3.03
2022-08-14T12:13:20.764Z,3.03
2022-08-14T12:16:06.503Z,2.53
2022-08-14T12:18:44.912Z,2.25
2022-08-14T12:21:21.908Z,3.10
2022-08-14T12:24:03.967Z,2.78
2022-08-14T12:26:39.283Z,2.28
2022-08-14T12:29:16.244Z,2.53
2022-08-14T12:31:46.988Z,2.75
2022-08-14T12:34:20.078Z,2.00
2022-08-14T12:36:47.617Z,2.15
2022-08-14T12:39:23.767Z,2.33
2022-08-14T12:41:57.320Z,3.95
2022-08-14T12:44:50.115Z,4.68
2022-08-14T12:47:21.265Z,2.13
2022-08-14T12:49:52.930Z,5.00
2022-08-14T12:52:42.921Z,3.80
2022-08-14T12:55:21.112Z,4.28
2022-08-14T12:57:53.165Z,4.38
2022-08-14T13:00:24.311Z,2.78
2022-08-14T13:02:56.535Z,3.38
2022-08-14T13:05:27.298Z,4.57
2022-08-14T13:07:54.465Z,3.30
2022-08-14T13:10:47.339Z,3.20
2022-08-14T13:13:15.550Z,3.75
2022-08-14T13:15:47.019Z,2.72
2022-08-14T13:18:17.176Z,3.55
2022-08-14T13:20:51.432Z,2.58
2022-08-14T13:23:30.620Z,3.58
2022-08-14T13:25:59.192Z,3.30
2022-08-14T13:28:32.908Z,3.33
2022-08-14T13:31:11.005Z,4.22
2022-08-14T13:33:40.535Z,5.15
2022-08-14T13:36:09.319Z,3.42
2022-08-14T13:38:35.897Z,2.67
2022-08-14T13:41:03.136Z,2.92
2022-08-14T13:43:36.633Z,3.15
2022-08-14T13:46:03.932Z,4.28
2022-08-14T13:48:36.159Z,2.78
2022-08-14T13:51:07.844Z,2.47
2022-08-14T13:53:52.595Z,2.70
2022-08-14T13:56:36.515Z,2.75
2022-08-14T13:59:04.183Z,3.15
2022-08-14T14:01:43.699Z,2.60
2022-08-14T14:04:19.322Z,2.53
2022-08-14T14:06:48.926Z,2.65
2022-08-14T14:09:20.924Z,4.15
2022-08-14T14:11:47.793Z,2.75
2022-08-14T14:14:44.567Z,2.45
2022-08-14T14:17:11.764Z,3.95
2022-08-14T14:19:39.079Z,4.85
2022-08-14T14:22:09.807Z,2.70
2022-08-14T14:24:40.220Z,3.35
2022-08-14T14:27:39.472Z,3.25
2022-08-14T14:30:00.074Z,2.70
2022-08-14T14:32:32.204Z,5.53
2022-08-14T14:35:03.047Z,2.53
2022-08-14T14:37:30.724Z,2.20
2022-08-14T14:40:54.371Z,2.10
2022-08-14T14:42:48.892Z,4.05
2022-08-14T14:45:22.132Z,2.85
2022-08-14T14:47:59.149Z,3.85
2022-08-14T14:50:26.496Z,3.20
2022-08-14T14:52:54.088Z,2.78
2022-08-14T14:56:04.654Z,4.40
2022-08-14T14:58:30.619Z,4.00
2022-08-14T15:00:59.881Z,3.60
2022-08-14T15:03:26.469Z,2.83
2022-08-14T15:05:54.123Z,4.30
2022-08-14T15:08:26.701Z,2.42
2022-08-14T15:11:13.779Z,5.40
2022-08-14T15:16:20.972Z,2.90
2022-08-14T15:18:49.156Z,2.65
2022-08-14T15:21:15.870Z,3.55
2022-08-14T15:23:44.370Z,2.83
2022-08-14T15:26:27.702Z,3.15
2022-08-14T15:29:05.829Z,3.03
2022-08-14T15:31:36.522Z,2.40
2022-08-14T15:34:43.056Z,2.38
2022-08-14T15:37:02.509Z,4.05
2022-08-14T15:39:34.000Z,3.60
2022-08-14T15:42:04.273Z,2.95
2022-08-14T15:44:43.985Z,2.85
2022-08-14T15:47:28.099Z,4.03
2022-08-14T15:49:59.542Z,2.90
2022-08-14T15:52:37.260Z,2.28
2022-08-14T15:55:07.517Z,2.83
2022-08-14T15:57:34.866Z,2.72
2022-08-14T16:00:37.888Z,2.30
2022-08-14T16:03:09.743Z,2.55
2022-08-14T16:05:38.257Z,2.55
2022-08-14T16:08:29.560Z,3.40
2022-08-14T16:10:55.997Z,2.47
2022-08-14T16:13:39.203Z,3.30
2022-08-14T16:16:34.828Z,2.53
2022-08-14T16:18:58.143Z,4.35
2022-08-14T16:21:31.653Z,3.63
2022-08-14T16:24:00.704Z,4.53
2022-08-14T16:26:29.958Z,3.42
2022-08-14T16:29:05.495Z,3.00
2022-08-14T16:31:35.984Z,3.35
2022-08-14T16:34:44.038Z,2.90
2022-08-14T16:36:57.135Z,2.47
2022-08-14T16:39:24.328Z,3.25
2022-08-14T16:41:52.579Z,2.22
2022-08-14T16:44:31.722Z,2.85
2022-08-14T16:47:03.208Z,3.88
2022-08-14T16:50:02.780Z,3.25
2022-08-14T16:52:25.524Z,3.55
2022-08-14T16:55:07.165Z,4.00
2022-08-14T16:57:34.319Z,2.42
2022-08-14T17:00:07.459Z,3.67
2022-08-14T17:02:50.453Z,5.10
2022-08-14T17:05:22.429Z,3.30
2022-08-14T17:08:33.027Z,2.78
2022-08-14T17:10:55.853Z,3.85
2022-08-14T17:13:47.588Z,7.30
2022-08-14T17:16:24.727Z,4.80
2022-08-14T17:19:01.249Z,4.97
2022-08-14T17:21:32.606Z,15.20
2022-08-14T17:24:51.421Z,16.10
2022-08-14T17:26:55.331Z,16.05
2022-08-14T17:29:29.443Z,13.50
2022-08-14T17:32:28.021Z,9.43
2022-08-14T17:34:57.793Z,7.22
2022-08-14T17:37:34.289Z,7.47
2022-08-14T17:40:15.347Z,6.22
2022-08-14T17:42:55.632Z,4.07
2022-08-14T17:45:38.912Z,4.57
2022-08-14T17:49:16.014Z,3.22
2022-08-14T17:51:12.116Z,3.83
2022-08-14T17:53:53.501Z,5.68
2022-08-14T17:56:30.874Z,4.10
2022-08-14T17:59:05.363Z,6.43
2022-08-14T18:01:36.057Z,3.25
2022-08-14T18:04:25.126Z,3.10
2022-08-14T18:06:58.544Z,3.33
2022-08-14T18:09:56.497Z,6.10
2022-08-14T18:12:32.850Z,4.78
2022-08-14T18:15:16.755Z,6.05
2022-08-14T18:17:52.883Z,3.33
2022-08-14T18:21:40.467Z,3.85
2022-08-14T18:23:10.403Z,3.50
2022-08-14T18:25:50.463Z,4.95
2022-08-14T18:28:51.176Z,6.40
2022-08-14T18:31:19.867Z,6.10
2022-08-14T18:33:55.332Z,3.97
2022-08-14T18:36:47.968Z,4.10
2022-08-14T18:39:30.306Z,5.30
2022-08-14T18:42:23.482Z,3.67
2022-08-14T18:44:50.801Z,4.18
2022-08-14T18:47:19.963Z,4.25
2022-08-14T18:49:57.654Z,6.57
2022-08-14T18:52:33.363Z,3.92
2022-08-14T18:55:16.623Z,3.70
2022-08-14T18:58:06.790Z,4.20
2022-08-14T19:00:54.611Z,4.82
2022-08-14T19:03:33.849Z,5.45
2022-08-14T19:06:02.799Z,3.83
2022-08-14T19:08:44.364Z,4.63
2022-08-14T19:11:32.765Z,4.68
2022-08-14T19:14:04.741Z,4.03
2022-08-14T19:16:34.949Z,5.32
2022-08-14T19:19:06.828Z,5.82
2022-08-14T19:21:43.516Z,5.97
2022-08-14T19:24:44.199Z,5.97
2022-08-14T19:27:19.158Z,6.45
2022-08-14T19:29:47.961Z,6.10
2022-08-14T19:32:43.942Z,7.32
2022-08-14T19:35:19.250Z,7.38
2022-08-14T19:37:52.739Z,8.68
2022-08-14T19:40:42.883Z,8.02
2022-08-14T19:43:22.394Z,6.70
2022-08-14T19:46:39.566Z,5.53
2022-08-14T19:48:57.146Z,5.40
2022-08-14T19:51:24.751Z,8.15
2022-08-14T19:54:13.271Z,5.90
2022-08-14T19:56:45.648Z,5.32
2022-08-14T19:59:18.349Z,7.80
2022-08-14T20:01:49.452Z,7.38
2022-08-14T20:04:46.974Z,11.38
2022-08-14T20:07:27.179Z,15.90
2022-08-14T20:11:04.708Z,10.02
2022-08-14T20:13:32.117Z,9.02
2022-08-14T20:16:06.413Z,11.27
2022-08-14T20:18:50.730Z,8.48
2022-08-14T20:21:18.564Z,8.10
2022-08-14T20:23:48.085Z,7.63
2022-08-14T20:26:31.193Z,10.38
2022-08-14T20:28:59.240Z,8.02
2022-08-14T20:31:36.679Z,6.72
2022-08-14T20:37:01.328Z,8.45
2022-08-14T20:39:34.001Z,9.77
2022-08-14T20:42:29.191Z,6.78
2022-08-14T20:45:24.314Z,6.43
2022-08-14T20:48:00.818Z,9.05
2022-08-14T20:50:29.947Z,8.15
2022-08-14T20:52:58.396Z,8.27
2022-08-14T20:55:32.178Z,11.20
2022-08-14T20:58:09.737Z,11.52
2022-08-14T21:00:52.598Z,8.43
2022-08-14T21:03:58.009Z,12.57
2022-08-14T21:07:23.397Z,10.10
2022-08-14T21:10:03.221Z,7.60
2022-08-14T21:12:34.208Z,7.63
2022-08-14T21:14:59.743Z,6.57
2022-08-14T21:17:27.331Z,9.73
2022-08-14T21:19:53.802Z,6.53
2022-08-14T21:22:20.325Z,6.63
2022-08-14T21:24:47.441Z,6.68
2022-08-14T21:27:22.550Z,9.63
2022-08-14T21:29:55.625Z,14.27
2022-08-14T21:32:35.170Z,7.85
2022-08-14T21:35:08.300Z,7.25
2022-08-14T21:37:43.997Z,7.05
2022-08-14T21:40:40.833Z,6.75
2022-08-14T21:43:01.009Z,6.47
2022-08-14T21:45:27.792Z,8.68
2022-08-14T21:47:56.402Z,7.25
2022-08-14T21:50:39.802Z,7.93
2022-08-14T21:53:11.112Z,6.45
2022-08-14T21:55:37.691Z,7.82
2022-08-14T21:58:52.058Z,7.22
2022-08-14T22:00:53.740Z,8.20
2022-08-14T22:03:23.415Z,7.90
2022-08-14T22:05:53.060Z,9.20
2022-08-14T22:08:22.498Z,8.68
2022-08-14T22:10:55.013Z,8.23
2022-08-14T22:13:26.415Z,8.90
2022-08-14T22:15:59.791Z,7.30
2022-08-14T22:18:29.796Z,8.77
2022-08-14T22:20:57.050Z,6.88
2022-08-14T22:23:24.145Z,6.75
2022-08-14T22:25:52.383Z,5.70
2022-08-14T22:28:33.169Z,6.38
2022-08-14T22:31:10.094Z,7.10
2022-08-14T22:33:37.424Z,7.43
2022-08-14T22:36:26.171Z,6.63
2022-08-14T22:38:54.243Z,8.23
2022-08-14T22:41:27.595Z,7.78
2022-08-14T22:44:01.835Z,9.57
2022-08-14T22:46:28.675Z,6.57
2022-08-14T22:48:57.368Z,6.15
2022-08-14T22:51:27.479Z,8.38
2022-08-14T22:53:56.221Z,8.15
2022-08-14T22:56:29.262Z,5.63
2022-08-14T22:58:57.833Z,5.45
2022-08-14T23:01:55.596Z,7.07
2022-08-14T23:04:34.907Z,6.63
2022-08-14T23:07:21.744Z,8.43
2022-08-14T23:10:31.307Z,6.47
2022-08-14T23:12:54.810Z,8.50
2022-08-14T23:15:23.364Z,7.20
2022-08-14T23:17:50.501Z,7.32
2022-08-14T23:20:20.709Z,9.38
2022-08-14T23:22:51.450Z,7.47
2022-08-14T23:25:20.016Z,7.78
2022-08-14T23:28:06.866Z,7.15
2022-08-14T23:30:55.254Z,6.20
2022-08-14T23:33:21.999Z,9.25
2022-08-14T23:35:59.128Z,7.35
2022-08-14T23:38:30.353Z,7.25
2022-08-14T23:41:00.733Z,6.68
2022-08-14T23:43:31.002Z,7.00
2022-08-14T23:45:58.681Z,8.90
2022-08-14T23:48:28.289Z,7.50
2022-08-14T23:50:55.615Z,7.75
2022-08-14T23:53:28.518Z,6.40
2022-08-14T23:56:30.289Z,7.43
2022-08-14T23:59:00.984Z,6.65
